createdAt,value
2024-02-03T00:00:21.056Z,96011.00
2024-02-03T00:01:21.043Z,96010.00
2024-02-03T00:02:21.051Z,96009.00
2024-02-03T00:03:21.097Z,96007.00
2024-02-03T00:04:21.147Z,96008.00
2024-02-03T00:05:21.134Z,96001.00
2024-02-03T00:06:21.240Z,96001.00
2024-02-03T00:07:21.265Z,96003.00
2024-02-03T00:08:21.229Z,96004.00
2024-02-03T00:09:21.298Z,96006.00
2024-02-03T00:10:21.262Z,96003.00
2024-02-03T00:11:21.852Z,96001.00
2024-02-03T00:12:21.377Z,95999.00
2024-02-03T00:13:21.358Z,96000.00
2024-02-03T00:14:21.391Z,95999.00
2024-02-03T00:15:21.474Z,95995.00
2024-02-03T00:16:21.460Z,95992.00
2024-02-03T00:17:21.470Z,95989.00
2024-02-03T00:18:21.638Z,95994.00
2024-02-03T00:19:21.612Z,95990.00
2024-02-03T00:20:21.565Z,95986.00
2024-02-03T00:21:21.591Z,95983.00
2024-02-03T00:22:21.619Z,95982.00
2024-02-03T00:23:21.671Z,95983.00
2024-02-03T00:24:21.709Z,95983.00
2024-02-03T00:25:21.697Z,95979.00
2024-02-03T00:26:21.718Z,95977.00
2024-02-03T00:27:21.806Z,95975.00
2024-02-03T00:28:21.799Z,95973.00
2024-02-03T00:29:21.838Z,95972.00
2024-02-03T00:30:21.880Z,95973.00
2024-02-03T00:31:21.876Z,95978.00
2024-02-03T00:32:21.960Z,95974.00
2024-02-03T00:33:22.117Z,95975.00
2024-02-03T00:34:22.060Z,95972.00
2024-02-03T00:35:22.022Z,95970.00
2024-02-03T00:36:22.111Z,95968.00
2024-02-03T00:37:22.079Z,95965.00
2024-02-03T00:38:22.117Z,95962.00
2024-02-03T00:39:22.191Z,95961.00
2024-02-03T00:40:22.213Z,95964.00
2024-02-03T00:41:22.243Z,95964.00
2024-02-03T00:42:22.310Z,95956.00
2024-02-03T00:43:22.309Z,95948.00
2024-02-03T00:44:22.340Z,95949.00
2024-02-03T00:45:22.395Z,95955.00
2024-02-03T00:46:22.430Z,95956.00
2024-02-03T00:47:22.447Z,95954.00
2024-02-03T00:48:22.721Z,95957.00
2024-02-03T00:49:22.673Z,95955.00
2024-02-03T00:50:22.608Z,95956.00
2024-02-03T00:51:22.646Z,95957.00
2024-02-03T00:52:22.667Z,95955.00
2024-02-03T00:53:22.706Z,95954.00
2024-02-03T00:54:22.757Z,95952.00
2024-02-03T00:55:22.842Z,95950.00
2024-02-03T00:56:22.832Z,95949.00
2024-02-03T00:57:22.938Z,95945.00
2024-02-03T00:58:22.895Z,95942.00
2024-02-03T00:59:22.960Z,95945.00
2024-02-03T01:00:23.071Z,95948.00
2024-02-03T01:01:23.061Z,95945.00
2024-02-03T01:02:23.034Z,95940.00
2024-02-03T01:03:23.121Z,95937.00
2024-02-03T01:04:23.297Z,95939.00
2024-02-03T01:05:23.183Z,95941.00
2024-02-03T01:06:23.224Z,95940.00
2024-02-03T01:07:23.226Z,95939.00
2024-02-03T01:08:23.272Z,95942.00
2024-02-03T01:09:23.326Z,95943.00
2024-02-03T01:10:23.354Z,95942.00
2024-02-03T01:11:23.403Z,95942.00
2024-02-03T01:12:23.499Z,95941.00
2024-02-03T01:13:23.520Z,95941.00
2024-02-03T01:14:23.544Z,95940.00
2024-02-03T01:15:23.745Z,95936.00
2024-02-03T01:16:23.635Z,95939.00
2024-02-03T01:17:23.666Z,95939.00
2024-02-03T01:18:23.906Z,95929.00
2024-02-03T01:19:23.876Z,95928.00
2024-02-03T01:20:23.818Z,95926.00
2024-02-03T01:21:23.924Z,95933.00
2024-02-03T01:22:23.920Z,95933.00
2024-02-03T01:23:23.931Z,95931.00
2024-02-03T01:24:23.991Z,95932.00
2024-02-03T01:25:24.012Z,95930.00
2024-02-03T01:26:24.047Z,95926.00
2024-02-03T01:27:24.125Z,95926.00
2024-02-03T01:28:24.144Z,95926.00
2024-02-03T01:29:25.399Z,95924.00
2024-02-03T01:30:24.254Z,95925.00
2024-02-03T01:31:24.275Z,95922.00
2024-02-03T01:32:24.344Z,95922.00
2024-02-03T01:33:24.472Z,95925.00
2024-02-03T01:34:24.499Z,95922.00
2024-02-03T01:35:24.432Z,95917.00
2024-02-03T01:36:24.555Z,95913.00
2024-02-03T01:37:24.517Z,95916.00
2024-02-03T01:38:24.563Z,95922.00
2024-02-03T01:39:24.646Z,95919.00
2024-02-03T01:40:24.648Z,95916.00
2024-02-03T01:41:24.739Z,95922.00
2024-02-03T01:42:24.774Z,95920.00
2024-02-03T01:43:24.779Z,95913.00
2024-02-03T01:44:24.820Z,95911.00
2024-02-03T01:45:24.935Z,95914.00
2024-02-03T01:46:24.913Z,95912.00
2024-02-03T01:47:24.996Z,95907.00
2024-02-03T01:48:25.063Z,95905.00
2024-02-03T01:49:25.117Z,95903.00
2024-02-03T01:50:25.086Z,95902.00
2024-02-03T01:51:25.189Z,95906.00
2024-02-03T01:52:25.201Z,95904.00
2024-02-03T01:53:25.241Z,95898.00
2024-02-03T01:54:25.378Z,95894.00
2024-02-03T01:55:25.317Z,95895.00
2024-02-03T01:56:25.343Z,95892.00
2024-02-03T01:57:25.442Z,95891.00
2024-02-03T01:58:25.420Z,95892.00
2024-02-03T01:59:25.511Z,95893.00
2024-02-03T02:00:25.596Z,95888.00
2024-02-03T02:01:25.614Z,95885.00
2024-02-03T02:02:25.625Z,95890.00
2024-02-03T02:03:25.720Z,95891.00
2024-02-03T02:04:25.882Z,95885.00
2024-02-03T02:05:25.772Z,95880.00
2024-02-03T02:06:28.832Z,95878.00
2024-02-03T02:07:26.797Z,95885.00
2024-02-03T02:08:25.786Z,95886.00
2024-02-03T02:09:25.830Z,95881.00
2024-02-03T02:10:25.779Z,95878.00
2024-02-03T02:11:25.803Z,95876.00
2024-02-03T02:12:25.800Z,95872.00
2024-02-03T02:13:25.785Z,95868.00
2024-02-03T02:14:26.242Z,95871.00
2024-02-03T02:15:26.302Z,95873.00
2024-02-03T02:16:25.784Z,95871.00
2024-02-03T02:17:25.773Z,95865.00
2024-02-03T02:18:26.000Z,95868.00
2024-02-03T02:19:25.835Z,95867.00
2024-02-03T02:20:25.792Z,95869.00
2024-02-03T02:21:25.868Z,95865.00
2024-02-03T02:22:25.880Z,95860.00
2024-02-03T02:23:25.928Z,95863.00
2024-02-03T02:24:26.010Z,95865.00
2024-02-03T02:25:26.027Z,95860.00
2024-02-03T02:26:26.062Z,95858.00
2024-02-03T02:27:26.158Z,95854.00
2024-02-03T02:28:26.164Z,95851.00
2024-02-03T02:29:26.210Z,95850.00
2024-02-03T02:30:26.280Z,95848.00
2024-02-03T02:31:26.310Z,95849.00
2024-02-03T02:32:26.362Z,95852.00
2024-02-03T02:33:26.539Z,95853.00
2024-02-03T02:34:26.505Z,95850.00
2024-02-03T02:35:26.505Z,95847.00
2024-02-03T02:36:26.659Z,95846.00
2024-02-03T02:37:26.612Z,95848.00
2024-02-03T02:38:26.644Z,95849.00
2024-02-03T02:39:26.716Z,95845.00
2024-02-03T02:40:26.732Z,95844.00
2024-02-03T02:41:26.788Z,95843.00
2024-02-03T02:42:26.857Z,95837.00
2024-02-03T02:43:26.877Z,95837.00
2024-02-03T02:44:26.939Z,95842.00
2024-02-03T02:45:27.051Z,95849.00
2024-02-03T02:46:27.203Z,95850.00
2024-02-03T02:47:27.076Z,95844.00
2024-02-03T02:48:27.196Z,95835.00
2024-02-03T02:49:27.264Z,95834.00
2024-02-03T02:50:27.215Z,95834.00
2024-02-03T02:51:27.286Z,95835.00
2024-02-03T02:52:27.316Z,95831.00
2024-02-03T02:53:27.365Z,95830.00
2024-02-03T02:54:27.548Z,95830.00
2024-02-03T02:55:27.476Z,95830.00
2024-02-03T02:56:27.536Z,95829.00
2024-02-03T02:57:27.649Z,95827.00
2024-02-03T02:58:27.661Z,95830.00
2024-02-03T02:59:27.696Z,95826.00
2024-02-03T03:00:27.760Z,95820.00
2024-02-03T03:01:27.859Z,95819.00
2024-02-03T03:02:27.832Z,95818.00
2024-02-03T03:03:27.909Z,95814.00
2024-02-03T03:04:28.141Z,95817.00
2024-02-03T03:05:27.943Z,95820.00
2024-02-03T03:06:28.051Z,95820.00
2024-02-03T03:07:28.062Z,95822.00
2024-02-03T03:08:28.101Z,95817.00
2024-02-03T03:09:28.160Z,95812.00
2024-02-03T03:10:28.187Z,95815.00
2024-02-03T03:11:28.229Z,95815.00
2024-02-03T03:12:28.278Z,95809.00
2024-02-03T03:13:28.370Z,95808.00
2024-02-03T03:14:28.363Z,95808.00
2024-02-03T03:15:28.443Z,95811.00
2024-02-03T03:16:28.447Z,95811.00
2024-02-03T03:17:28.527Z,95811.00
2024-02-03T03:18:28.593Z,95805.00
2024-02-03T03:19:28.655Z,95799.00
2024-02-03T03:20:28.626Z,95799.00
2024-02-03T03:21:28.721Z,95798.00
2024-02-03T03:22:28.723Z,95798.00
2024-02-03T03:23:28.804Z,95798.00
2024-02-03T03:24:28.829Z,95801.00
2024-02-03T03:25:28.851Z,95801.00
2024-02-03T03:26:28.896Z,95798.00
2024-02-03T03:27:28.991Z,95798.00
2024-02-03T03:28:28.986Z,95798.00
2024-02-03T03:29:29.050Z,95792.00
2024-02-03T03:30:29.108Z,95795.00
2024-02-03T03:31:29.127Z,95799.00
2024-02-03T03:32:29.249Z,95799.00
2024-02-03T03:33:29.379Z,95799.00
2024-02-03T03:34:29.410Z,95793.00
2024-02-03T03:35:29.312Z,95792.00
2024-02-03T03:36:29.393Z,95796.00
2024-02-03T03:37:29.433Z,95799.00
2024-02-03T03:38:29.463Z,95800.00
2024-02-03T03:39:29.645Z,95795.00
2024-02-03T03:40:29.556Z,95790.00
2024-02-03T03:41:29.614Z,95794.00
2024-02-03T03:42:29.687Z,95793.00
2024-02-03T03:43:29.717Z,95793.00
2024-02-03T03:44:29.774Z,95789.00
2024-02-03T03:45:29.832Z,95789.00
2024-02-03T03:46:29.844Z,95786.00
2024-02-03T03:47:29.941Z,95785.00
2024-02-03T03:48:29.992Z,95787.00
2024-02-03T03:49:30.093Z,95783.00
2024-02-03T03:50:30.048Z,95785.00
2024-02-03T03:51:30.146Z,95786.00
2024-02-03T03:52:30.138Z,95782.00
2024-02-03T03:53:30.177Z,95781.00
2024-02-03T03:54:30.287Z,95784.00
2024-02-03T03:55:30.277Z,95786.00
2024-02-03T03:56:30.312Z,95783.00
2024-02-03T03:57:30.393Z,95783.00
2024-02-03T03:58:30.419Z,95790.00
2024-02-03T03:59:30.456Z,95790.00
2024-02-03T04:00:30.568Z,95784.00
2024-02-03T04:01:30.603Z,95780.00
2024-02-03T04:02:30.586Z,95780.00
2024-02-03T04:03:30.665Z,95781.00
2024-02-03T04:04:30.712Z,95777.00
2024-02-03T04:05:30.761Z,95777.00
2024-02-03T04:06:30.867Z,95779.00
2024-02-03T04:07:30.810Z,95780.00
2024-02-03T04:08:30.844Z,95778.00
2024-02-03T04:09:30.900Z,95777.00
2024-02-03T04:10:30.949Z,95775.00
2024-02-03T04:11:31.011Z,95771.00
2024-02-03T04:12:31.072Z,95776.00
2024-02-03T04:13:31.130Z,95776.00
2024-02-03T04:14:31.148Z,95771.00
2024-02-03T04:15:31.244Z,95771.00
2024-02-03T04:16:31.231Z,95773.00
2024-02-03T04:17:31.289Z,95778.00
2024-02-03T04:18:31.444Z,95774.00
2024-02-03T04:19:31.470Z,95769.00
2024-02-03T04:20:31.436Z,95769.00
2024-02-03T04:21:31.505Z,95766.00
2024-02-03T04:22:31.510Z,95769.00
2024-02-03T04:23:31.555Z,95770.00
2024-02-03T04:24:31.652Z,95769.00
2024-02-03T04:25:31.677Z,95772.00
2024-02-03T04:26:31.705Z,95773.00
2024-02-03T04:27:31.783Z,95774.00
2024-02-03T04:28:31.800Z,95771.00
2024-02-03T04:29:31.855Z,95767.00
2024-02-03T04:30:31.971Z,95767.00
2024-02-03T04:31:31.957Z,95765.00
2024-02-03T04:32:32.049Z,95767.00
2024-02-03T04:33:32.260Z,95765.00
2024-02-03T04:34:32.259Z,95766.00
2024-02-03T04:35:32.319Z,95762.00
2024-02-03T04:36:32.236Z,95763.00
2024-02-03T04:37:32.328Z,95771.00
2024-02-03T04:38:32.369Z,95776.00
2024-02-03T04:39:32.421Z,95771.00
2024-02-03T04:40:32.549Z,95761.00
2024-02-03T04:41:32.622Z,95758.00
2024-02-03T04:42:32.540Z,95760.00
2024-02-03T04:43:39.829Z,95761.00
2024-02-03T04:44:39.825Z,95758.00
2024-02-03T04:45:39.865Z,95756.00
2024-02-03T04:46:39.831Z,95750.00
2024-02-03T04:47:39.920Z,95748.00
2024-02-03T04:48:40.041Z,95753.00
2024-02-03T04:49:39.878Z,95756.00
2024-02-03T04:50:39.835Z,95759.00
2024-02-03T04:51:39.851Z,95753.00
2024-02-03T04:52:39.820Z,95749.00
2024-02-03T04:53:39.829Z,95745.00
2024-02-03T04:54:39.861Z,95749.00
2024-02-03T04:55:39.825Z,95752.00
2024-02-03T04:56:39.840Z,95750.00
2024-02-03T04:57:39.952Z,95750.00
2024-02-03T04:58:39.834Z,95754.00
2024-02-03T04:59:39.846Z,95755.00
2024-02-03T05:00:39.904Z,95755.00
2024-02-03T05:01:39.875Z,95756.00
2024-02-03T05:02:39.848Z,95753.00
2024-02-03T05:03:39.939Z,95753.00
2024-02-03T05:04:39.866Z,95751.00
2024-02-03T05:05:39.892Z,95752.00
2024-02-03T05:06:40.045Z,95751.00
2024-02-03T05:07:39.931Z,95749.00
2024-02-03T05:08:39.987Z,95749.00
2024-02-03T05:09:40.128Z,95747.00
2024-02-03T05:10:40.092Z,95753.00
2024-02-03T05:11:40.156Z,95754.00
2024-02-03T05:12:40.268Z,95753.00
2024-02-03T05:13:40.299Z,95752.00
2024-02-03T05:14:40.363Z,95748.00
2024-02-03T05:15:40.494Z,95746.00
2024-02-03T05:16:40.504Z,95755.00
2024-02-03T05:17:40.610Z,95760.00
2024-02-03T05:18:40.702Z,95753.00
2024-02-03T05:19:40.767Z,95747.00
2024-02-03T05:20:40.729Z,95744.00
2024-02-03T05:21:40.850Z,95744.00
2024-02-03T05:22:40.853Z,95743.00
2024-02-03T05:23:40.913Z,95747.00
2024-02-03T05:24:40.994Z,95751.00
2024-02-03T05:25:41.026Z,95748.00
2024-02-03T05:26:41.103Z,95745.00
2024-02-03T05:27:41.160Z,95740.00
2024-02-03T05:28:41.197Z,95740.00
2024-02-03T05:29:41.260Z,95744.00
2024-02-03T05:30:41.350Z,95748.00
2024-02-03T05:31:41.454Z,95747.00
2024-02-03T05:32:41.449Z,95749.00
2024-02-03T05:33:41.565Z,95749.00
2024-02-03T05:34:41.702Z,95744.00
2024-02-03T05:35:41.619Z,95743.00
2024-02-03T05:36:41.770Z,95746.00
2024-02-03T05:37:41.746Z,95747.00
2024-02-03T05:38:41.822Z,95744.00
2024-02-03T05:39:42.010Z,95743.00
2024-02-03T05:40:41.928Z,95745.00
2024-02-03T05:41:41.985Z,95747.00
2024-02-03T05:42:42.044Z,95748.00
2024-02-03T05:43:42.104Z,95744.00
2024-02-03T05:44:42.160Z,95744.00
2024-02-03T05:45:42.263Z,95743.00
2024-02-03T05:46:42.251Z,95740.00
2024-02-03T05:47:42.410Z,95737.00
2024-02-03T05:48:42.504Z,95735.00
2024-02-03T05:49:42.571Z,95738.00
2024-02-03T05:50:42.488Z,95742.00
2024-02-03T05:51:42.643Z,95742.00
2024-02-03T05:52:42.603Z,95735.00
2024-02-03T05:53:42.657Z,95736.00
2024-02-03T05:54:42.756Z,95742.00
2024-02-03T05:55:42.789Z,95744.00
2024-02-03T05:56:42.836Z,95744.00
2024-02-03T05:57:42.910Z,95747.00
2024-02-03T05:58:42.960Z,95747.00
2024-02-03T05:59:48.633Z,95746.00
2024-02-03T06:00:44.085Z,95745.00
2024-02-03T06:01:43.041Z,95741.00
2024-02-03T06:02:43.001Z,95739.00
2024-02-03T06:03:43.055Z,95742.00
2024-02-03T06:04:43.040Z,95743.00
2024-02-03T06:05:58.432Z,95742.00
2024-02-03T06:06:44.131Z,95750.00
2024-02-03T06:07:43.122Z,95761.00
2024-02-03T06:08:43.027Z,95766.00
2024-02-03T06:09:43.060Z,95759.00
2024-02-03T06:10:43.059Z,95753.00
2024-02-03T06:11:43.042Z,95745.00
2024-02-03T06:12:43.108Z,95747.00
2024-02-03T06:13:43.039Z,95747.00
2024-02-03T06:14:43.056Z,95755.00
2024-02-03T06:15:43.071Z,95760.00
2024-02-03T06:16:43.088Z,95759.00
2024-02-03T06:17:43.175Z,95759.00
2024-02-03T06:18:43.304Z,95756.00
2024-02-03T06:19:44.361Z,95755.00
2024-02-03T06:20:43.364Z,95756.00
2024-02-03T06:21:43.473Z,95760.00
2024-02-03T06:22:43.492Z,95759.00
2024-02-03T06:23:43.530Z,95755.00
2024-02-03T06:24:43.614Z,95764.00
2024-02-03T06:25:43.651Z,95769.00
2024-02-03T06:26:43.771Z,95766.00
2024-02-03T06:27:43.912Z,95762.00
2024-02-03T06:28:43.834Z,95761.00
2024-02-03T06:29:44.005Z,95764.00
2024-02-03T06:30:44.034Z,95764.00
2024-02-03T06:31:44.031Z,95771.00
2024-02-03T06:32:44.181Z,95771.00
2024-02-03T06:33:44.265Z,95766.00
2024-02-03T06:34:44.299Z,95766.00
2024-02-03T06:35:44.283Z,95768.00
2024-02-03T06:36:44.358Z,95772.00
2024-02-03T06:37:44.447Z,95771.00
2024-02-03T06:38:44.478Z,95772.00
2024-02-03T06:39:44.567Z,95775.00
2024-02-03T06:40:44.647Z,95775.00
2024-02-03T06:41:44.666Z,95778.00
2024-02-03T06:42:44.776Z,95775.00
2024-02-03T06:43:44.799Z,95771.00
2024-02-03T06:44:47.007Z,95778.00
2024-02-03T06:45:44.982Z,95783.00
2024-02-03T06:46:44.990Z,95786.00
2024-02-03T06:47:45.048Z,95786.00
2024-02-03T06:48:45.231Z,95783.00
2024-02-03T06:49:45.274Z,95784.00
2024-02-03T06:50:45.241Z,95781.00
2024-02-03T06:51:45.348Z,95785.00
2024-02-03T06:52:45.383Z,95787.00
2024-02-03T06:53:45.457Z,95794.00
2024-02-03T06:54:45.554Z,95793.00
2024-02-03T06:55:45.592Z,95788.00
2024-02-03T06:56:45.642Z,95789.00
2024-02-03T06:57:45.781Z,95795.00
2024-02-03T06:58:45.781Z,95796.00
2024-02-03T06:59:45.845Z,95794.00
2024-02-03T07:00:45.944Z,95798.00
2024-02-03T07:01:46.029Z,95804.00
2024-02-03T07:02:46.053Z,95803.00
2024-02-03T07:03:46.157Z,95798.00
2024-02-03T07:04:46.220Z,95796.00
2024-02-03T07:05:46.310Z,95798.00
2024-02-03T07:06:46.474Z,95800.00
2024-02-03T07:07:46.394Z,95811.00
2024-02-03T07:08:48.269Z,95813.00
2024-02-03T07:09:46.460Z,95814.00
2024-02-03T07:10:46.455Z,95810.00
2024-02-03T07:11:56.767Z,95809.00
2024-02-03T07:12:47.524Z,95810.00
2024-02-03T07:13:46.491Z,95811.00
2024-02-03T07:14:46.473Z,95809.00
2024-02-03T07:15:46.492Z,95804.00
2024-02-03T07:16:46.472Z,95805.00
2024-02-03T07:17:46.519Z,95808.00
2024-02-03T07:18:46.627Z,95807.00
2024-02-03T07:19:46.568Z,95808.00
2024-02-03T07:20:46.519Z,95807.00
2024-02-03T07:21:46.512Z,95806.00
2024-02-03T07:22:46.580Z,95807.00
2024-02-03T07:23:46.630Z,95808.00
2024-02-03T07:24:46.771Z,95808.00
2024-02-03T07:25:46.779Z,95809.00
2024-02-03T07:26:46.835Z,95814.00
2024-02-03T07:27:46.990Z,95812.00
2024-02-03T07:28:46.931Z,95808.00
2024-02-03T07:29:47.001Z,95810.00
2024-02-03T07:30:47.083Z,95812.00
2024-02-03T07:31:47.129Z,95811.00
2024-02-03T07:32:47.194Z,95811.00
2024-02-03T07:33:47.316Z,95813.00
2024-02-03T07:34:47.492Z,95816.00
2024-02-03T07:35:47.481Z,95818.00
2024-02-03T07:36:47.474Z,95816.00
2024-02-03T07:37:47.495Z,95811.00
2024-02-03T07:38:47.543Z,95810.00
2024-02-03T07:39:47.689Z,95810.00
2024-02-03T07:40:47.666Z,95811.00
2024-02-03T07:41:47.724Z,95812.00
2024-02-03T07:42:47.844Z,95811.00
2024-02-03T07:43:47.858Z,95815.00
2024-02-03T07:44:47.915Z,95814.00
2024-02-03T07:45:48.004Z,95820.00
2024-02-03T07:46:48.016Z,95824.00
2024-02-03T07:47:48.147Z,95822.00
2024-02-03T07:48:48.267Z,95824.00
2024-02-03T07:49:48.302Z,95825.00
2024-02-03T07:50:48.183Z,95824.00
2024-02-03T07:51:48.310Z,95823.00
2024-02-03T07:52:49.019Z,95822.00
2024-02-03T07:53:48.348Z,95824.00
2024-02-03T07:54:48.384Z,95821.00
2024-02-03T07:55:48.372Z,95823.00
2024-02-03T07:56:48.406Z,95823.00
2024-02-03T07:57:51.178Z,95815.00
2024-02-03T07:58:48.437Z,95813.00
2024-02-03T07:59:48.434Z,95816.00
2024-02-03T08:00:48.484Z,95819.00
2024-02-03T08:01:48.531Z,95816.00
2024-02-03T08:02:48.448Z,95816.00
2024-02-03T08:03:48.549Z,95812.00
2024-02-03T08:04:48.492Z,95806.00
2024-02-03T08:05:48.496Z,95804.00
2024-02-03T08:06:48.556Z,95806.00
2024-02-03T08:07:48.480Z,95804.00
2024-02-03T08:08:48.499Z,95800.00
2024-02-03T08:09:48.501Z,95798.00
2024-02-03T08:10:48.444Z,95796.00
2024-02-03T08:11:48.472Z,95800.00
2024-02-03T08:12:48.527Z,95801.00
2024-02-03T08:13:48.536Z,95791.00
2024-02-03T08:14:48.470Z,95784.00
2024-02-03T08:15:48.573Z,95783.00
2024-02-03T08:16:48.500Z,95782.00
2024-02-03T08:17:48.517Z,95788.00
2024-02-03T08:18:48.534Z,95791.00
2024-02-03T08:19:48.531Z,95794.00
2024-02-03T08:20:48.472Z,95793.00
2024-02-03T08:21:48.550Z,95787.00
2024-02-03T08:22:48.468Z,95785.00
2024-02-03T08:23:48.467Z,95783.00
2024-02-03T08:24:48.490Z,95781.00
2024-02-03T08:25:48.467Z,95780.00
2024-02-03T08:26:48.484Z,95781.00
2024-02-03T08:27:48.493Z,95783.00
2024-02-03T08:28:48.479Z,95788.00
2024-02-03T08:29:48.482Z,95789.00
2024-02-03T08:30:48.588Z,95786.00
2024-02-03T08:31:48.540Z,95785.00
2024-02-03T08:32:48.643Z,95783.00
2024-02-03T08:33:48.580Z,95784.00
2024-02-03T08:35:48.664Z,95786.00
2024-02-03T08:36:48.596Z,95786.00
2024-02-03T08:37:48.539Z,95790.00
2024-02-03T08:38:48.493Z,95794.00
2024-02-03T08:39:48.573Z,95795.00
2024-02-03T08:40:48.476Z,95794.00
2024-02-03T08:41:48.500Z,95800.00
2024-02-03T08:42:48.546Z,95800.00
2024-02-03T08:43:48.483Z,95800.00
2024-02-03T08:44:48.500Z,95797.00
2024-02-03T08:45:48.591Z,95795.00
2024-02-03T08:46:48.488Z,95797.00
2024-02-03T08:47:48.607Z,95797.00
2024-02-03T08:48:48.575Z,95794.00
2024-02-03T08:49:48.592Z,95794.00
2024-02-03T08:50:48.499Z,95793.00
2024-02-03T08:51:48.596Z,95794.00
2024-02-03T08:52:48.512Z,95794.00
2024-02-03T08:53:48.530Z,95798.00
2024-02-03T08:54:48.581Z,95801.00
2024-02-03T08:55:48.503Z,95796.00
2024-02-03T08:56:48.557Z,95791.00
2024-02-03T08:57:48.517Z,95793.00
2024-02-03T08:58:48.510Z,95795.00
2024-02-03T08:59:48.534Z,95797.00
2024-02-03T09:00:48.552Z,95800.00
2024-02-03T09:01:48.564Z,95798.00
2024-02-03T09:02:48.543Z,95797.00
2024-02-03T09:03:48.892Z,95804.00
2024-02-03T09:04:48.589Z,95805.00
2024-02-03T09:05:48.586Z,95801.00
2024-02-03T09:06:48.520Z,95800.00
2024-02-03T09:07:48.593Z,95800.00
2024-02-03T09:08:48.530Z,95799.00
2024-02-03T09:09:48.619Z,95800.00
2024-02-03T09:10:48.520Z,95797.00
2024-02-03T09:11:48.522Z,95796.00
2024-02-03T09:12:48.610Z,95799.00
2024-02-03T09:13:48.526Z,95801.00
2024-02-03T09:14:48.534Z,95800.00
2024-02-03T09:15:48.533Z,95804.00
2024-02-03T09:16:48.538Z,95806.00
2024-02-03T09:17:48.599Z,95805.00
2024-02-03T09:18:48.662Z,95804.00
2024-02-03T09:19:48.715Z,95802.00
2024-02-03T09:20:48.574Z,95805.00
2024-02-03T09:21:48.565Z,95809.00
2024-02-03T09:22:48.559Z,95808.00
2024-02-03T09:23:48.544Z,95801.00
2024-02-03T09:24:48.648Z,95799.00
2024-02-03T09:25:48.549Z,95796.00
2024-02-03T09:26:48.555Z,95799.00
2024-02-03T09:27:48.653Z,95801.00
2024-02-03T09:28:48.557Z,95801.00
2024-02-03T09:29:48.581Z,95799.00
2024-02-03T09:30:48.567Z,95799.00
2024-02-03T09:31:48.603Z,95803.00
2024-02-03T09:32:48.640Z,95803.00
2024-02-03T09:33:48.712Z,95796.00
2024-02-03T09:34:48.666Z,95790.00
2024-02-03T09:35:48.592Z,95792.00
2024-02-03T09:37:51.797Z,95785.00
2024-02-03T09:38:48.643Z,95789.00
2024-02-03T09:39:48.756Z,95796.00
2024-02-03T09:40:48.662Z,95799.00
2024-02-03T09:41:48.645Z,95800.00
2024-02-03T09:42:48.685Z,95794.00
2024-02-03T09:43:50.331Z,95791.00
2024-02-03T09:44:48.645Z,95794.00
2024-02-03T09:45:48.683Z,95792.00
2024-02-03T09:46:48.642Z,95789.00
2024-02-03T09:47:48.739Z,95788.00
2024-02-03T09:48:48.787Z,95785.00
2024-02-03T09:49:48.736Z,95787.00
2024-02-03T09:50:48.658Z,95791.00
2024-02-03T09:51:48.739Z,95792.00
2024-02-03T09:52:48.663Z,95785.00
2024-02-03T09:53:48.687Z,95786.00
2024-02-03T09:54:48.802Z,95790.00
2024-02-03T09:55:48.694Z,95792.00
2024-02-03T09:56:48.668Z,95799.00
2024-02-03T09:57:48.944Z,95796.00
2024-02-03T09:58:48.699Z,95793.00
2024-02-03T09:59:48.671Z,95790.00
2024-02-03T10:00:48.775Z,95782.00
2024-02-03T10:01:48.668Z,95781.00
2024-02-03T10:02:48.680Z,95784.00
2024-02-03T10:03:48.697Z,95784.00
2024-02-03T10:04:48.701Z,95783.00
2024-02-03T10:05:48.746Z,95780.00
2024-02-03T10:06:48.880Z,95776.00
2024-02-03T10:07:48.715Z,95776.00
2024-02-03T10:08:48.744Z,95782.00
2024-02-03T10:11:48.841Z,95776.00
2024-02-03T10:12:48.809Z,95777.00
2024-02-03T10:13:48.790Z,95780.00
2024-02-03T10:14:48.792Z,95779.00
2024-02-03T10:15:48.913Z,95774.00
2024-02-03T10:16:48.789Z,95767.00
2024-02-03T10:17:48.831Z,95767.00
2024-02-03T10:18:48.947Z,95767.00
2024-02-03T10:19:48.846Z,95772.00
2024-02-03T10:20:48.805Z,95771.00
2024-02-03T10:21:48.828Z,95766.00
2024-02-03T10:22:48.823Z,95761.00
2024-02-03T10:23:48.809Z,95757.00
2024-02-03T10:24:48.862Z,95756.00
2024-02-03T10:25:48.816Z,95755.00
2024-02-03T10:26:48.801Z,95751.00
2024-02-03T10:27:48.876Z,95749.00
2024-02-03T10:28:48.818Z,95747.00
2024-02-03T10:29:48.816Z,95746.00
2024-02-03T10:30:48.922Z,95742.00
2024-02-03T10:31:48.868Z,95737.00
2024-02-03T10:32:48.919Z,95735.00
2024-02-03T10:33:48.972Z,95732.00
2024-02-03T10:34:48.840Z,95732.00
2024-02-03T10:35:48.837Z,95732.00
2024-02-03T10:36:50.526Z,95729.00
2024-02-03T10:37:48.823Z,95732.00
2024-02-03T10:38:48.846Z,95727.00
2024-02-03T10:39:48.966Z,95725.00
2024-02-03T10:40:48.834Z,95724.00
2024-02-03T10:41:48.825Z,95722.00
2024-02-03T10:42:48.942Z,95719.00
2024-02-03T10:43:48.916Z,95716.00
2024-02-03T10:44:48.832Z,95719.00
2024-02-03T10:45:49.602Z,95713.00
2024-02-03T10:46:48.848Z,95706.00
2024-02-03T10:47:48.952Z,95701.00
2024-02-03T10:48:49.049Z,95703.00
2024-02-03T10:49:49.046Z,95703.00
2024-02-03T10:50:48.850Z,95701.00
2024-02-03T10:51:48.937Z,95699.00
2024-02-03T10:52:48.898Z,95700.00
2024-02-03T10:53:48.971Z,95696.00
2024-02-03T10:54:49.089Z,95692.00
2024-02-03T10:55:49.048Z,95687.00
2024-02-03T10:56:49.096Z,95690.00
2024-02-03T10:57:49.348Z,95693.00
2024-02-03T10:58:49.187Z,95696.00
2024-02-03T10:59:49.218Z,95696.00
2024-02-03T11:00:49.342Z,95693.00
2024-02-03T11:01:49.315Z,95694.00
2024-02-03T11:02:49.360Z,95693.00
2024-02-03T11:03:49.494Z,95692.00
2024-02-03T11:04:49.439Z,95686.00
2024-02-03T11:05:49.524Z,95681.00
2024-02-03T11:06:49.711Z,95682.00
2024-02-03T11:07:49.574Z,95685.00
2024-02-03T11:08:49.589Z,95685.00
2024-02-03T11:09:49.677Z,95685.00
2024-02-03T11:10:49.700Z,95680.00
2024-02-03T11:11:49.703Z,95676.00
2024-02-03T11:12:49.741Z,95675.00
2024-02-03T11:13:49.740Z,95677.00
2024-02-03T11:14:49.793Z,95674.00
2024-02-03T11:15:49.826Z,95670.00
2024-02-03T11:16:49.817Z,95671.00
2024-02-03T11:17:49.918Z,95669.00
2024-02-03T11:18:49.967Z,95670.00
2024-02-03T11:19:50.261Z,95668.00
2024-02-03T11:20:49.974Z,95668.00
2024-02-03T11:21:50.135Z,95659.00
2024-02-03T11:22:50.109Z,95650.00
2024-02-03T11:23:50.155Z,95649.00
2024-02-03T11:24:50.227Z,95646.00
2024-02-03T11:25:50.283Z,95646.00
2024-02-03T11:26:50.333Z,95646.00
2024-02-03T11:27:50.480Z,95643.00
2024-02-03T11:28:50.453Z,95643.00
2024-02-03T11:29:50.501Z,95642.00
2024-02-03T11:30:50.639Z,95635.00
2024-02-03T11:31:50.711Z,95632.00
2024-02-03T11:32:50.644Z,95632.00
2024-02-03T11:33:50.732Z,95630.00
2024-02-03T11:34:50.754Z,95630.00
2024-02-03T11:35:50.689Z,95632.00
2024-02-03T11:36:50.762Z,95630.00
2024-02-03T11:37:50.718Z,95626.00
2024-02-03T11:38:50.719Z,95622.00
2024-02-03T11:39:50.829Z,95621.00
2024-02-03T11:40:50.704Z,95619.00
2024-02-03T11:41:50.729Z,95616.00
2024-02-03T11:42:50.791Z,95611.00
2024-02-03T11:43:50.714Z,95612.00
2024-02-03T11:44:50.725Z,95614.00
2024-02-03T11:45:50.834Z,95613.00
2024-02-03T11:46:50.784Z,95611.00
2024-02-03T11:47:50.782Z,95615.00
2024-02-03T11:48:50.921Z,95618.00